![]() |
EMODnet Physics ERDDAP
Easier access to scientific data |
log in|
Brought to you by EMODnet Physics |
| Dataset Title: | NDBC - Collection of dew point temperature (DEWT) TimeSeries - IN SITU MultiPointTimeSeriesObservation
|
| Institution: | NDBC (Dataset ID: TS_DEWT_NDBC) |
| Information: | Summary
| License
| FGDC
| ISO 19115
| Metadata
| Background
| Subset
| Data Access Form
| Make a graph
|
| Name | Last modified | Size | Description | |
|---|---|---|---|---|
| Parent Directory | - | - | ||
| SKXA2_TS_DEWT_012018.nc | 27-Oct-2024 21:11 | 587227 | ||
| SKXA2_TS_DEWT_012019.nc | 27-Oct-2024 21:11 | 438992 | ||
| SKXA2_TS_DEWT_012020.nc | 27-Oct-2024 21:11 | 587228 | ||
| SKXA2_TS_DEWT_012021.nc | 27-Oct-2024 21:12 | 587221 | ||
| SKXA2_TS_DEWT_012022.nc | 27-Oct-2024 21:12 | 432774 | ||
| SKXA2_TS_DEWT_012023.nc | 27-Oct-2024 21:12 | 587129 | ||
| SKXA2_TS_DEWT_012024.nc | 27-Oct-2024 21:12 | 437381 | ||
| SKXA2_TS_DEWT_012025.nc | 07-Feb-2025 15:30 | 587014 | ||
| SKXA2_TS_DEWT_012026.nc | 02-Feb-2026 15:20 | 439940 | ||
| SKXA2_TS_DEWT_022018.nc | 27-Oct-2024 21:12 | 586782 | ||
| SKXA2_TS_DEWT_022019.nc | 27-Oct-2024 21:12 | 587285 | ||
| SKXA2_TS_DEWT_022020.nc | 27-Oct-2024 21:12 | 439001 | ||
| SKXA2_TS_DEWT_022021.nc | 27-Oct-2024 21:12 | 587314 | ||
| SKXA2_TS_DEWT_022022.nc | 27-Oct-2024 21:12 | 587314 | ||
| SKXA2_TS_DEWT_022023.nc | 27-Oct-2024 21:12 | 587284 | ||
| SKXA2_TS_DEWT_022024.nc | 16-Sep-2024 16:51 | 429781 | ||
| SKXA2_TS_DEWT_022025.nc | 16-Mar-2025 09:29 | 429909 | ||
| SKXA2_TS_DEWT_022026.nc | 01-Mar-2026 16:50 | 429486 | ||
| SKXA2_TS_DEWT_032018.nc | 27-Oct-2024 21:12 | 430404 | ||
| SKXA2_TS_DEWT_032019.nc | 27-Oct-2024 21:12 | 587142 | ||
| SKXA2_TS_DEWT_032020.nc | 27-Oct-2024 21:12 | 587147 | ||
| SKXA2_TS_DEWT_032021.nc | 27-Oct-2024 21:12 | 587237 | ||
| SKXA2_TS_DEWT_032022.nc | 27-Oct-2024 21:12 | 587276 | ||
| SKXA2_TS_DEWT_032025.nc | 02-Apr-2025 08:41 | 587591 | ||
| SKXA2_TS_DEWT_032026.nc | 21-Mar-2026 19:14 | 440262 | ||
| SKXA2_TS_DEWT_042018.nc | 27-Oct-2024 21:13 | 438134 | ||
| SKXA2_TS_DEWT_042019.nc | 27-Oct-2024 21:13 | 586974 | ||
| SKXA2_TS_DEWT_042020.nc | 27-Oct-2024 21:13 | 440168 | ||
| SKXA2_TS_DEWT_042021.nc | 27-Oct-2024 21:13 | 586876 | ||
| SKXA2_TS_DEWT_042022.nc | 27-Oct-2024 21:13 | 587225 | ||
| SKXA2_TS_DEWT_042023.nc | 27-Oct-2024 21:13 | 587372 | ||
| SKXA2_TS_DEWT_042025.nc | 01-May-2025 07:48 | 587290 | ||
| SKXA2_TS_DEWT_052018.nc | 27-Oct-2024 21:13 | 587196 | ||
| SKXA2_TS_DEWT_052019.nc | 27-Oct-2024 21:13 | 428832 | ||
| SKXA2_TS_DEWT_052020.nc | 27-Oct-2024 21:13 | 428743 | ||
| SKXA2_TS_DEWT_052021.nc | 27-Oct-2024 21:13 | 428110 | ||
| SKXA2_TS_DEWT_052022.nc | 27-Oct-2024 21:13 | 439069 | ||
| SKXA2_TS_DEWT_052023.nc | 27-Oct-2024 21:13 | 438868 | ||
| SKXA2_TS_DEWT_052025.nc | 01-Jun-2025 09:17 | 438799 | ||
| SKXA2_TS_DEWT_062018.nc | 27-Oct-2024 21:13 | 438783 | ||
| SKXA2_TS_DEWT_062019.nc | 27-Oct-2024 21:13 | 439523 | ||
| SKXA2_TS_DEWT_062020.nc | 27-Oct-2024 21:13 | 438754 | ||
| SKXA2_TS_DEWT_062021.nc | 27-Oct-2024 21:14 | 438955 | ||
| SKXA2_TS_DEWT_062022.nc | 27-Oct-2024 21:14 | 438780 | ||
| SKXA2_TS_DEWT_062023.nc | 27-Oct-2024 21:14 | 439010 | ||
| SKXA2_TS_DEWT_062025.nc | 01-Jul-2025 07:42 | 438761 | ||
| SKXA2_TS_DEWT_072018.nc | 27-Oct-2024 21:14 | 438447 | ||
| SKXA2_TS_DEWT_072019.nc | 27-Oct-2024 21:14 | 438761 | ||
| SKXA2_TS_DEWT_072020.nc | 27-Oct-2024 21:14 | 439388 | ||
| SKXA2_TS_DEWT_072021.nc | 27-Oct-2024 21:14 | 438930 | ||
| SKXA2_TS_DEWT_072023.nc | 27-Oct-2024 21:14 | 438877 | ||
| SKXA2_TS_DEWT_072025.nc | 01-Aug-2025 08:25 | 429849 | ||
| SKXA2_TS_DEWT_082018.nc | 27-Oct-2024 21:14 | 429857 | ||
| SKXA2_TS_DEWT_082019.nc | 27-Oct-2024 21:14 | 424493 | ||
| SKXA2_TS_DEWT_082020.nc | 27-Oct-2024 21:14 | 587145 | ||
| SKXA2_TS_DEWT_082021.nc | 27-Oct-2024 21:14 | 587484 | ||
| SKXA2_TS_DEWT_082022.nc | 27-Oct-2024 21:14 | 587134 | ||
| SKXA2_TS_DEWT_082023.nc | 27-Oct-2024 21:15 | 587260 | ||
| SKXA2_TS_DEWT_082025.nc | 01-Sep-2025 08:11 | 587320 | ||
| SKXA2_TS_DEWT_092018.nc | 27-Oct-2024 21:15 | 440336 | ||
| SKXA2_TS_DEWT_092019.nc | 27-Oct-2024 21:15 | 440466 | ||
| SKXA2_TS_DEWT_092020.nc | 27-Oct-2024 21:15 | 587231 | ||
| SKXA2_TS_DEWT_092021.nc | 27-Oct-2024 21:15 | 440009 | ||
| SKXA2_TS_DEWT_092022.nc | 27-Oct-2024 21:15 | 587171 | ||
| SKXA2_TS_DEWT_092023.nc | 27-Oct-2024 21:15 | 587069 | ||
| SKXA2_TS_DEWT_092025.nc | 01-Oct-2025 10:09 | 596794 | ||
| SKXA2_TS_DEWT_102018.nc | 27-Oct-2024 21:15 | 587202 | ||
| SKXA2_TS_DEWT_102019.nc | 27-Oct-2024 21:15 | 435188 | ||
| SKXA2_TS_DEWT_102020.nc | 27-Oct-2024 21:15 | 587268 | ||
| SKXA2_TS_DEWT_102021.nc | 27-Oct-2024 21:15 | 587319 | ||
| SKXA2_TS_DEWT_102022.nc | 27-Oct-2024 21:15 | 429547 | ||
| SKXA2_TS_DEWT_102023.nc | 27-Oct-2024 21:15 | 429437 | ||
| SKXA2_TS_DEWT_102025.nc | 01-Nov-2025 09:41 | 429530 | ||
| SKXA2_TS_DEWT_112018.nc | 27-Oct-2024 21:15 | 440109 | ||
| SKXA2_TS_DEWT_112019.nc | 27-Oct-2024 21:15 | 440016 | ||
| SKXA2_TS_DEWT_112020.nc | 27-Oct-2024 21:15 | 440172 | ||
| SKXA2_TS_DEWT_112021.nc | 27-Oct-2024 21:16 | 435493 | ||
| SKXA2_TS_DEWT_112022.nc | 27-Oct-2024 21:16 | 440188 | ||
| SKXA2_TS_DEWT_112023.nc | 27-Oct-2024 21:16 | 440073 | ||
| SKXA2_TS_DEWT_112024.nc | 17-Jan-2025 21:15 | 439971 | ||
| SKXA2_TS_DEWT_112025.nc | 01-Dec-2025 11:49 | 440067 | ||
| SKXA2_TS_DEWT_122017.nc | 27-Oct-2024 21:16 | 439303 | ||
| SKXA2_TS_DEWT_122018.nc | 27-Oct-2024 21:16 | 440064 | ||
| SKXA2_TS_DEWT_122019.nc | 27-Oct-2024 21:16 | 439958 | ||
| SKXA2_TS_DEWT_122020.nc | 27-Oct-2024 21:16 | 593343 | ||
| SKXA2_TS_DEWT_122021.nc | 27-Oct-2024 21:16 | 440147 | ||
| SKXA2_TS_DEWT_122022.nc | 27-Oct-2024 21:16 | 440249 | ||
| SKXA2_TS_DEWT_122023.nc | 27-Oct-2024 21:16 | 440233 | ||
| SKXA2_TS_DEWT_122024.nc | 23-Jan-2025 01:13 | 440192 | ||
| SKXA2_TS_DEWT_122025.nc | 01-Jan-2026 11:00 | 429604 | ||